sensor_id;sensor_type;location;lat;lon;timestamp;temperature;humidity
5346;DHT22;2695;49.444;11.054;2023-07-02T00:00:30;20.60;99.90
5346;DHT22;2695;49.444;11.054;2023-07-02T00:03:00;20.60;99.90
5346;DHT22;2695;49.444;11.054;2023-07-02T00:05:28;20.60;99.90
5346;DHT22;2695;49.444;11.054;2023-07-02T00:07:56;20.60;99.90
5346;DHT22;2695;49.444;11.054;2023-07-02T00:10:25;20.90;99.90
5346;DHT22;2695;49.444;11.054;2023-07-02T00:12:53;20.70;99.90
5346;DHT22;2695;49.444;11.054;2023-07-02T00:15:21;20.70;99.90
5346;DHT22;2695;49.444;11.054;2023-07-02T00:17:49;20.80;99.90
5346;DHT22;2695;49.444;11.054;2023-07-02T00:20:18;20.80;99.90
5346;DHT22;2695;49.444;11.054;2023-07-02T00:22:46;20.70;99.90
5346;DHT22;2695;49.444;11.054;2023-07-02T00:25:14;20.60;99.90
5346;DHT22;2695;49.444;11.054;2023-07-02T00:27:44;20.40;99.90
5346;DHT22;2695;49.444;11.054;2023-07-02T00:30:12;20.30;99.90
5346;DHT22;2695;49.444;11.054;2023-07-02T00:32:40;20.20;99.90
5346;DHT22;2695;49.444;11.054;2023-07-02T00:35:08;20.10;99.90
5346;DHT22;2695;49.444;11.054;2023-07-02T00:37:36;20.10;99.90
5346;DHT22;2695;49.444;11.054;2023-07-02T00:40:06;20.10;99.90
5346;DHT22;2695;49.444;11.054;2023-07-02T00:42:34;20.00;99.90
5346;DHT22;2695;49.444;11.054;2023-07-02T00:45:04;20.10;99.90
5346;DHT22;2695;49.444;11.054;2023-07-02T00:47:34;20.10;99.90
5346;DHT22;2695;49.444;11.054;2023-07-02T00:50:03;20.20;99.90
5346;DHT22;2695;49.444;11.054;2023-07-02T00:52:31;20.20;99.90
5346;DHT22;2695;49.444;11.054;2023-07-02T00:54:59;20.30;99.90
5346;DHT22;2695;49.444;11.054;2023-07-02T00:57:27;20.20;99.90
5346;DHT22;2695;49.444;11.054;2023-07-02T00:59:57;20.20;99.90
5346;DHT22;2695;49.444;11.054;2023-07-02T01:02:29;20.20;99.90
5346;DHT22;2695;49.444;11.054;2023-07-02T01:04:57;20.20;99.90
5346;DHT22;2695;49.444;11.054;2023-07-02T01:07:27;20.20;99.90
5346;DHT22;2695;49.444;11.054;2023-07-02T01:09:56;20.20;99.90
5346;DHT22;2695;49.444;11.054;2023-07-02T01:12:25;20.20;99.90
5346;DHT22;2695;49.444;11.054;2023-07-02T01:14:56;20.30;99.90
5346;DHT22;2695;49.444;11.054;2023-07-02T01:17:29;20.30;99.90
5346;DHT22;2695;49.444;11.054;2023-07-02T01:20:11;20.30;99.90
5346;DHT22;2695;49.444;11.054;2023-07-02T01:22:41;20.30;99.90
5346;DHT22;2695;49.444;11.054;2023-07-02T01:25:09;20.30;99.90
5346;DHT22;2695;49.444;11.054;2023-07-02T01:27:37;20.30;99.90
5346;DHT22;2695;49.444;11.054;2023-07-02T01:30:06;20.30;99.90
5346;DHT22;2695;49.444;11.054;2023-07-02T01:32:36;20.20;99.90
5346;DHT22;2695;49.444;11.054;2023-07-02T01:35:05;20.20;99.90
5346;DHT22;2695;49.444;11.054;2023-07-02T01:37:34;20.20;99.90
5346;DHT22;2695;49.444;11.054;2023-07-02T01:40:05;20.20;99.90
5346;DHT22;2695;49.444;11.054;2023-07-02T01:42:34;20.30;99.90
5346;DHT22;2695;49.444;11.054;2023-07-02T01:45:02;20.80;99.90
5346;DHT22;2695;49.444;11.054;2023-07-02T01:47:31;20.30;99.90
5346;DHT22;2695;49.444;11.054;2023-07-02T01:49:59;20.30;99.90
5346;DHT22;2695;49.444;11.054;2023-07-02T01:52:27;20.30;99.90
5346;DHT22;2695;49.444;11.054;2023-07-02T01:55:01;20.20;99.90
5346;DHT22;2695;49.444;11.054;2023-07-02T01:57:29;20.10;99.90
5346;DHT22;2695;49.444;11.054;2023-07-02T01:59:58;20.10;99.90
5346;DHT22;2695;49.444;11.054;2023-07-02T02:02:26;20.10;99.90
5346;DHT22;2695;49.444;11.054;2023-07-02T02:04:54;20.00;99.90
5346;DHT22;2695;49.444;11.054;2023-07-02T02:07:23;20.00;99.90
5346;DHT22;2695;49.444;11.054;2023-07-02T02:09:53;20.00;99.90
5346;DHT22;2695;49.444;11.054;2023-07-02T02:12:22;19.90;99.90
5346;DHT22;2695;49.444;11.054;2023-07-02T02:14:50;19.90;99.90
5346;DHT22;2695;49.444;11.054;2023-07-02T02:17:18;19.80;99.90
5346;DHT22;2695;49.444;11.054;2023-07-02T02:19:46;19.70;99.90
5346;DHT22;2695;49.444;11.054;2023-07-02T02:22:14;19.70;99.90
5346;DHT22;2695;49.444;11.054;2023-07-02T02:24:41;19.70;99.90
5346;DHT22;2695;49.444;11.054;2023-07-02T02:27:09;19.80;99.90
5346;DHT22;2695;49.444;11.054;2023-07-02T02:29:39;19.80;99.90
5346;DHT22;2695;49.444;11.054;2023-07-02T02:32:07;19.70;99.90
5346;DHT22;2695;49.444;11.054;2023-07-02T02:34:35;19.60;99.90
5346;DHT22;2695;49.444;11.054;2023-07-02T02:37:03;19.50;99.90
5346;DHT22;2695;49.444;11.054;2023-07-02T02:39:31;19.50;99.90
5346;DHT22;2695;49.444;11.054;2023-07-02T02:41:59;19.50;99.90
5346;DHT22;2695;49.444;11.054;2023-07-02T02:44:27;19.40;99.90
5346;DHT22;2695;49.444;11.054;2023-07-02T02:46:57;19.30;99.90
5346;DHT22;2695;49.444;11.054;2023-07-02T02:49:26;19.30;99.90
5346;DHT22;2695;49.444;11.054;2023-07-02T02:51:54;19.30;99.90
5346;DHT22;2695;49.444;11.054;2023-07-02T02:54:23;19.20;99.90
5346;DHT22;2695;49.444;11.054;2023-07-02T02:56:51;19.20;99.90
5346;DHT22;2695;49.444;11.054;2023-07-02T02:59:18;19.10;99.90
5346;DHT22;2695;49.444;11.054;2023-07-02T03:01:46;19.00;99.90
5346;DHT22;2695;49.444;11.054;2023-07-02T03:04:16;19.00;99.90
5346;DHT22;2695;49.444;11.054;2023-07-02T03:06:44;19.10;99.90
5346;DHT22;2695;49.444;11.054;2023-07-02T03:09:12;19.00;99.90
5346;DHT22;2695;49.444;11.054;2023-07-02T03:11:40;19.00;99.90
5346;DHT22;2695;49.444;11.054;2023-07-02T03:14:08;19.00;99.90
5346;DHT22;2695;49.444;11.054;2023-07-02T03:16:36;19.10;99.90
5346;DHT22;2695;49.444;11.054;2023-07-02T03:19:04;19.10;99.90
5346;DHT22;2695;49.444;11.054;2023-07-02T03:21:34;19.20;99.90
5346;DHT22;2695;49.444;11.054;2023-07-02T03:24:02;19.20;99.90
5346;DHT22;2695;49.444;11.054;2023-07-02T03:26:30;19.20;99.90
5346;DHT22;2695;49.444;11.054;2023-07-02T03:28:58;19.30;99.90
5346;DHT22;2695;49.444;11.054;2023-07-02T03:31:26;19.30;99.90
5346;DHT22;2695;49.444;11.054;2023-07-02T03:33:54;19.20;99.90
5346;DHT22;2695;49.444;11.054;2023-07-02T03:36:22;19.30;99.90
5346;DHT22;2695;49.444;11.054;2023-07-02T03:38:51;19.20;99.90
5346;DHT22;2695;49.444;11.054;2023-07-02T03:41:19;19.30;99.90
5346;DHT22;2695;49.444;11.054;2023-07-02T03:43:47;19.30;99.90
5346;DHT22;2695;49.444;11.054;2023-07-02T03:46:15;19.30;99.90
5346;DHT22;2695;49.444;11.054;2023-07-02T03:48:43;19.40;99.90
5346;DHT22;2695;49.444;11.054;2023-07-02T03:51:11;19.40;99.90
5346;DHT22;2695;49.444;11.054;2023-07-02T03:53:41;19.40;99.90
5346;DHT22;2695;49.444;11.054;2023-07-02T03:56:10;19.40;99.90
5346;DHT22;2695;49.444;11.054;2023-07-02T03:58:39;19.70;99.90
5346;DHT22;2695;49.444;11.054;2023-07-02T04:01:08;19.90;99.90
5346;DHT22;2695;49.444;11.054;2023-07-02T04:03:36;19.80;99.90
5346;DHT22;2695;49.444;11.054;2023-07-02T04:06:04;19.70;99.90
5346;DHT22;2695;49.444;11.054;2023-07-02T04:08:33;19.60;99.90
5346;DHT22;2695;49.444;11.054;2023-07-02T04:11:01;19.50;99.90
5346;DHT22;2695;49.444;11.054;2023-07-02T04:13:30;19.40;99.90
5346;DHT22;2695;49.444;11.054;2023-07-02T04:15:58;19.30;99.90
5346;DHT22;2695;49.444;11.054;2023-07-02T04:18:26;19.30;99.90
5346;DHT22;2695;49.444;11.054;2023-07-02T04:20:56;19.50;99.90
5346;DHT22;2695;49.444;11.054;2023-07-02T04:23:24;19.30;99.90
5346;DHT22;2695;49.444;11.054;2023-07-02T04:25:52;19.40;99.90
5346;DHT22;2695;49.444;11.054;2023-07-02T04:28:41;19.40;99.90
5346;DHT22;2695;49.444;11.054;2023-07-02T04:31:10;19.40;99.90
5346;DHT22;2695;49.444;11.054;2023-07-02T04:33:38;19.40;99.90
5346;DHT22;2695;49.444;11.054;2023-07-02T04:36:06;19.50;99.90
5346;DHT22;2695;49.444;11.054;2023-07-02T04:38:34;19.50;99.90
5346;DHT22;2695;49.444;11.054;2023-07-02T04:41:02;19.50;99.90
5346;DHT22;2695;49.444;11.054;2023-07-02T04:43:32;19.50;99.90
5346;DHT22;2695;49.444;11.054;2023-07-02T04:46:02;19.60;99.90
5346;DHT22;2695;49.444;11.054;2023-07-02T04:48:30;19.60;99.90
5346;DHT22;2695;49.444;11.054;2023-07-02T04:50:58;19.70;99.90
5346;DHT22;2695;49.444;11.054;2023-07-02T04:53:26;19.80;99.90
5346;DHT22;2695;49.444;11.054;2023-07-02T04:55:54;19.90;99.90
5346;DHT22;2695;49.444;11.054;2023-07-02T04:58:30;19.90;99.90
5346;DHT22;2695;49.444;11.054;2023-07-02T05:01:02;19.90;99.90
5346;DHT22;2695;49.444;11.054;2023-07-02T05:03:30;20.00;99.90
5346;DHT22;2695;49.444;11.054;2023-07-02T05:05:58;20.20;99.90
5346;DHT22;2695;49.444;11.054;2023-07-02T05:08:27;20.10;99.90
5346;DHT22;2695;49.444;11.054;2023-07-02T05:10:55;20.10;99.90
5346;DHT22;2695;49.444;11.054;2023-07-02T05:13:27;20.10;99.90
5346;DHT22;2695;49.444;11.054;2023-07-02T05:15:55;20.10;99.90
5346;DHT22;2695;49.444;11.054;2023-07-02T05:18:24;20.00;99.90
5346;DHT22;2695;49.444;11.054;2023-07-02T05:20:52;20.30;99.90
5346;DHT22;2695;49.444;11.054;2023-07-02T05:23:20;19.90;99.90
5346;DHT22;2695;49.444;11.054;2023-07-02T05:25:48;19.90;99.90
5346;DHT22;2695;49.444;11.054;2023-07-02T05:28:16;19.90;99.90
5346;DHT22;2695;49.444;11.054;2023-07-02T05:30:44;20.20;99.90
5346;DHT22;2695;49.444;11.054;2023-07-02T05:33:13;19.90;99.90
5346;DHT22;2695;49.444;11.054;2023-07-02T05:35:43;20.00;99.90
5346;DHT22;2695;49.444;11.054;2023-07-02T05:38:12;20.00;99.90
5346;DHT22;2695;49.444;11.054;2023-07-02T05:40:40;20.10;99.90
5346;DHT22;2695;49.444;11.054;2023-07-02T05:43:08;20.10;99.90
5346;DHT22;2695;49.444;11.054;2023-07-02T05:45:36;20.10;99.90
5346;DHT22;2695;49.444;11.054;2023-07-02T05:48:04;20.10;99.90
5346;DHT22;2695;49.444;11.054;2023-07-02T05:50:32;20.20;99.90
5346;DHT22;2695;49.444;11.054;2023-07-02T05:53:02;20.80;99.90
5346;DHT22;2695;49.444;11.054;2023-07-02T05:55:30;20.30;99.90
5346;DHT22;2695;49.444;11.054;2023-07-02T05:58:05;20.30;99.90
5346;DHT22;2695;49.444;11.054;2023-07-02T06:00:34;20.30;99.90
5346;DHT22;2695;49.444;11.054;2023-07-02T06:03:02;20.40;99.90
5346;DHT22;2695;49.444;11.054;2023-07-02T06:05:30;21.30;99.90
5346;DHT22;2695;49.444;11.054;2023-07-02T06:07:58;20.80;99.90
5346;DHT22;2695;49.444;11.054;2023-07-02T06:10:27;21.10;99.90
5346;DHT22;2695;49.444;11.054;2023-07-02T06:12:55;21.50;99.90
5346;DHT22;2695;49.444;11.054;2023-07-02T06:15:23;22.30;99.90
5346;DHT22;2695;49.444;11.054;2023-07-02T06:17:51;22.40;99.90
5346;DHT22;2695;49.444;11.054;2023-07-02T06:20:20;22.50;99.90
5346;DHT22;2695;49.444;11.054;2023-07-02T06:22:47;22.90;99.90
5346;DHT22;2695;49.444;11.054;2023-07-02T06:25:15;23.60;99.00
5346;DHT22;2695;49.444;11.054;2023-07-02T06:27:45;24.20;97.50
5346;DHT22;2695;49.444;11.054;2023-07-02T06:30:13;24.30;96.40
5346;DHT22;2695;49.444;11.054;2023-07-02T06:32:41;24.00;95.50
5346;DHT22;2695;49.444;11.054;2023-07-02T06:35:09;23.60;95.50
5346;DHT22;2695;49.444;11.054;2023-07-02T06:37:37;23.60;95.70
5346;DHT22;2695;49.444;11.054;2023-07-02T06:40:06;23.50;95.10
5346;DHT22;2695;49.444;11.054;2023-07-02T06:42:35;23.40;95.10
5346;DHT22;2695;49.444;11.054;2023-07-02T06:45:07;23.30;95.40
5346;DHT22;2695;49.444;11.054;2023-07-02T06:47:35;23.70;94.60
5346;DHT22;2695;49.444;11.054;2023-07-02T06:50:04;24.00;94.20
5346;DHT22;2695;49.444;11.054;2023-07-02T06:52:32;24.80;92.70
5346;DHT22;2695;49.444;11.054;2023-07-02T06:55:00;26.10;87.50
5346;DHT22;2695;49.444;11.054;2023-07-02T06:57:28;26.70;82.60
5346;DHT22;2695;49.444;11.054;2023-07-02T06:59:57;26.70;79.00
5346;DHT22;2695;49.444;11.054;2023-07-02T07:02:28;26.50;78.50
5346;DHT22;2695;49.444;11.054;2023-07-02T07:04:56;25.90;75.60
5346;DHT22;2695;49.444;11.054;2023-07-02T07:07:24;27.00;73.50
5346;DHT22;2695;49.444;11.054;2023-07-02T07:09:52;28.40;67.40
5346;DHT22;2695;49.444;11.054;2023-07-02T07:12:20;29.00;64.10
5346;DHT22;2695;49.444;11.054;2023-07-02T07:14:48;29.30;62.00
5346;DHT22;2695;49.444;11.054;2023-07-02T07:17:16;29.30;59.70
5346;DHT22;2695;49.444;11.054;2023-07-02T07:19:45;28.70;58.70
5346;DHT22;2695;49.444;11.054;2023-07-02T07:22:14;27.90;59.70
5346;DHT22;2695;49.444;11.054;2023-07-02T07:24:42;26.60;63.20
5346;DHT22;2695;49.444;11.054;2023-07-02T07:27:10;25.30;67.50
5346;DHT22;2695;49.444;11.054;2023-07-02T07:29:38;24.60;70.70
5346;DHT22;2695;49.444;11.054;2023-07-02T07:32:06;24.10;72.70
5346;DHT22;2695;49.444;11.054;2023-07-02T07:34:34;23.80;75.10
5346;DHT22;2695;49.444;11.054;2023-07-02T07:37:05;23.80;75.10
5346;DHT22;2695;49.444;11.054;2023-07-02T07:39:34;23.70;75.40
5346;DHT22;2695;49.444;11.054;2023-07-02T07:42:03;23.50;75.30
5346;DHT22;2695;49.444;11.054;2023-07-02T07:44:31;23.40;76.20
5346;DHT22;2695;49.444;11.054;2023-07-02T07:46:59;23.60;76.20
5346;DHT22;2695;49.444;11.054;2023-07-02T07:49:27;25.10;73.40
5346;DHT22;2695;49.444;11.054;2023-07-02T07:51:55;26.50;70.60
5346;DHT22;2695;49.444;11.054;2023-07-02T07:54:24;28.60;64.20
5346;DHT22;2695;49.444;11.054;2023-07-02T07:56:52;30.10;57.60
5346;DHT22;2695;49.444;11.054;2023-07-02T07:59:26;29.90;56.20
5346;DHT22;2695;49.444;11.054;2023-07-02T08:01:54;28.60;57.10
5346;DHT22;2695;49.444;11.054;2023-07-02T08:04:22;28.50;58.90
5346;DHT22;2695;49.444;11.054;2023-07-02T08:06:50;28.40;57.40
5346;DHT22;2695;49.444;11.054;2023-07-02T08:09:21;28.50;57.00
5346;DHT22;2695;49.444;11.054;2023-07-02T08:11:50;28.60;55.80
5346;DHT22;2695;49.444;11.054;2023-07-02T08:14:18;27.80;56.90
5346;DHT22;2695;49.444;11.054;2023-07-02T08:16:46;27.10;58.20
5346;DHT22;2695;49.444;11.054;2023-07-02T08:19:14;26.30;59.70
5346;DHT22;2695;49.444;11.054;2023-07-02T08:21:42;27.50;58.90
5346;DHT22;2695;49.444;11.054;2023-07-02T08:24:10;29.20;54.10
5346;DHT22;2695;49.444;11.054;2023-07-02T08:26:39;30.00;53.10
5346;DHT22;2695;49.444;11.054;2023-07-02T08:29:09;31.70;51.00
5346;DHT22;2695;49.444;11.054;2023-07-02T08:31:37;33.60;46.00
5346;DHT22;2695;49.444;11.054;2023-07-02T08:34:05;34.50;42.70
5346;DHT22;2695;49.444;11.054;2023-07-02T08:36:33;35.30;40.80
5346;DHT22;2695;49.444;11.054;2023-07-02T08:39:01;35.30;39.20
5346;DHT22;2695;49.444;11.054;2023-07-02T08:41:30;34.50;40.20
5346;DHT22;2695;49.444;11.054;2023-07-02T08:44:00;34.10;39.70
5346;DHT22;2695;49.444;11.054;2023-07-02T08:46:32;33.30;41.00
5346;DHT22;2695;49.444;11.054;2023-07-02T08:49:00;32.00;42.20
5346;DHT22;2695;49.444;11.054;2023-07-02T08:51:29;31.00;44.00
5346;DHT22;2695;49.444;11.054;2023-07-02T08:53:57;31.90;44.10
5346;DHT22;2695;49.444;11.054;2023-07-02T08:56:25;33.10;41.10
5346;DHT22;2695;49.444;11.054;2023-07-02T08:58:53;32.70;41.80
5346;DHT22;2695;49.444;11.054;2023-07-02T09:01:22;33.50;40.70
5346;DHT22;2695;49.444;11.054;2023-07-02T09:03:51;33.50;40.00
5346;DHT22;2695;49.444;11.054;2023-07-02T09:06:19;32.50;41.30
5346;DHT22;2695;49.444;11.054;2023-07-02T09:08:48;31.00;43.70
5346;DHT22;2695;49.444;11.054;2023-07-02T09:11:16;29.70;46.10
5346;DHT22;2695;49.444;11.054;2023-07-02T09:13:46;30.00;46.90
5346;DHT22;2695;49.444;11.054;2023-07-02T09:16:21;31.80;43.00
5346;DHT22;2695;49.444;11.054;2023-07-02T09:19:00;33.70;40.80
5346;DHT22;2695;49.444;11.054;2023-07-02T09:21:37;35.70;37.10
5346;DHT22;2695;49.444;11.054;2023-07-02T09:24:13;35.80;37.10
5346;DHT22;2695;49.444;11.054;2023-07-02T09:26:43;35.70;36.10
5346;DHT22;2695;49.444;11.054;2023-07-02T09:29:11;34.90;36.30
5346;DHT22;2695;49.444;11.054;2023-07-02T09:31:46;33.40;38.60
5346;DHT22;2695;49.444;11.054;2023-07-02T09:34:36;33.70;39.60
5346;DHT22;2695;49.444;11.054;2023-07-02T09:37:06;35.20;35.90
5346;DHT22;2695;49.444;11.054;2023-07-02T09:39:34;36.20;34.20
5346;DHT22;2695;49.444;11.054;2023-07-02T09:42:06;35.60;34.60
5346;DHT22;2695;49.444;11.054;2023-07-02T09:44:35;35.10;35.30
5346;DHT22;2695;49.444;11.054;2023-07-02T09:47:04;35.00;36.30
5346;DHT22;2695;49.444;11.054;2023-07-02T09:49:35;36.10;34.60
5346;DHT22;2695;49.444;11.054;2023-07-02T09:52:05;37.80;32.50
5346;DHT22;2695;49.444;11.054;2023-07-02T09:54:34;38.70;30.90
5346;DHT22;2695;49.444;11.054;2023-07-02T09:57:03;37.40;32.00
5346;DHT22;2695;49.444;11.054;2023-07-02T09:59:33;35.90;33.40
5346;DHT22;2695;49.444;11.054;2023-07-02T10:02:01;35.40;33.20
5346;DHT22;2695;49.444;11.054;2023-07-02T10:04:41;34.80;34.30
5346;DHT22;2695;49.444;11.054;2023-07-02T10:07:10;33.50;36.00
5346;DHT22;2695;49.444;11.054;2023-07-02T10:09:39;32.50;37.70
5346;DHT22;2695;49.444;11.054;2023-07-02T10:12:18;33.30;37.50
5346;DHT22;2695;49.444;11.054;2023-07-02T10:14:53;34.40;35.50
5346;DHT22;2695;49.444;11.054;2023-07-02T10:17:26;34.80;34.40
5346;DHT22;2695;49.444;11.054;2023-07-02T10:19:58;34.40;34.40
5346;DHT22;2695;49.444;11.054;2023-07-02T10:22:27;33.20;36.00
5346;DHT22;2695;49.444;11.054;2023-07-02T10:24:55;32.60;37.40
5346;DHT22;2695;49.444;11.054;2023-07-02T10:27:34;33.30;37.20
5346;DHT22;2695;49.444;11.054;2023-07-02T10:30:03;34.20;35.50
5346;DHT22;2695;49.444;11.054;2023-07-02T10:32:33;34.40;34.90
5346;DHT22;2695;49.444;11.054;2023-07-02T10:35:13;34.50;34.70
5346;DHT22;2695;49.444;11.054;2023-07-02T10:37:41;34.90;34.20
5346;DHT22;2695;49.444;11.054;2023-07-02T10:40:10;35.40;33.50
5346;DHT22;2695;49.444;11.054;2023-07-02T10:42:46;35.20;34.00
5346;DHT22;2695;49.444;11.054;2023-07-02T10:45:15;34.30;34.10
5346;DHT22;2695;49.444;11.054;2023-07-02T10:47:43;33.10;35.80
5346;DHT22;2695;49.444;11.054;2023-07-02T10:50:17;32.60;37.10
5346;DHT22;2695;49.444;11.054;2023-07-02T10:52:45;33.50;35.90
5346;DHT22;2695;49.444;11.054;2023-07-02T10:55:16;34.40;33.20
5346;DHT22;2695;49.444;11.054;2023-07-02T10:57:46;34.00;33.00
5346;DHT22;2695;49.444;11.054;2023-07-02T11:00:15;32.90;34.10
5346;DHT22;2695;49.444;11.054;2023-07-02T11:02:43;31.80;35.70
5346;DHT22;2695;49.444;11.054;2023-07-02T11:05:11;31.70;35.90
5346;DHT22;2695;49.444;11.054;2023-07-02T11:07:42;32.10;36.00
5346;DHT22;2695;49.444;11.054;2023-07-02T11:10:16;32.30;35.20
5346;DHT22;2695;49.444;11.054;2023-07-02T11:12:44;32.30;35.00
5346;DHT22;2695;49.444;11.054;2023-07-02T11:15:14;32.60;34.00
5346;DHT22;2695;49.444;11.054;2023-07-02T11:17:42;32.20;34.50
5346;DHT22;2695;49.444;11.054;2023-07-02T11:20:11;32.40;34.50
5346;DHT22;2695;49.444;11.054;2023-07-02T11:22:41;33.20;33.50
5346;DHT22;2695;49.444;11.054;2023-07-02T11:25:11;33.40;31.80
5346;DHT22;2695;49.444;11.054;2023-07-02T11:27:39;32.90;32.80
5346;DHT22;2695;49.444;11.054;2023-07-02T11:30:08;33.50;32.20
5346;DHT22;2695;49.444;11.054;2023-07-02T11:32:47;34.00;31.20
5346;DHT22;2695;49.444;11.054;2023-07-02T11:35:17;34.10;30.70
5346;DHT22;2695;49.444;11.054;2023-07-02T11:37:47;33.70;31.60
5346;DHT22;2695;49.444;11.054;2023-07-02T11:40:17;32.90;32.90
5346;DHT22;2695;49.444;11.054;2023-07-02T11:42:47;32.60;32.40
5346;DHT22;2695;49.444;11.054;2023-07-02T11:45:15;31.80;31.90
5346;DHT22;2695;49.444;11.054;2023-07-02T11:47:43;32.60;32.60
5346;DHT22;2695;49.444;11.054;2023-07-02T11:50:11;32.70;32.70
5346;DHT22;2695;49.444;11.054;2023-07-02T11:52:53;32.50;32.20
5346;DHT22;2695;49.444;11.054;2023-07-02T11:55:22;32.40;33.30
5346;DHT22;2695;49.444;11.054;2023-07-02T11:57:50;31.70;33.90
5346;DHT22;2695;49.444;11.054;2023-07-02T12:00:18;31.20;35.30
5346;DHT22;2695;49.444;11.054;2023-07-02T12:02:46;30.80;35.90
5346;DHT22;2695;49.444;11.054;2023-07-02T12:05:14;30.40;37.00
5346;DHT22;2695;49.444;11.054;2023-07-02T12:07:42;30.00;37.10
5346;DHT22;2695;49.444;11.054;2023-07-02T12:10:11;29.80;37.70
5346;DHT22;2695;49.444;11.054;2023-07-02T12:12:39;29.90;38.00
5346;DHT22;2695;49.444;11.054;2023-07-02T12:15:08;30.10;37.70
5346;DHT22;2695;49.444;11.054;2023-07-02T12:17:36;30.20;37.30
5346;DHT22;2695;49.444;11.054;2023-07-02T12:20:04;30.10;38.20
5346;DHT22;2695;49.444;11.054;2023-07-02T12:22:33;30.10;38.20
5346;DHT22;2695;49.444;11.054;2023-07-02T12:25:01;30.10;37.90
5346;DHT22;2695;49.444;11.054;2023-07-02T12:27:30;29.70;38.80
5346;DHT22;2695;49.444;11.054;2023-07-02T12:29:58;29.30;39.70
5346;DHT22;2695;49.444;11.054;2023-07-02T12:32:26;29.20;39.60
5346;DHT22;2695;49.444;11.054;2023-07-02T12:34:54;29.00;39.70
5346;DHT22;2695;49.444;11.054;2023-07-02T12:37:22;28.80;39.80
5346;DHT22;2695;49.444;11.054;2023-07-02T12:39:50;28.60;39.90
5346;DHT22;2695;49.444;11.054;2023-07-02T12:42:19;28.60;39.80
5346;DHT22;2695;49.444;11.054;2023-07-02T12:44:48;28.60;39.10
5346;DHT22;2695;49.444;11.054;2023-07-02T12:47:16;28.60;39.80
5346;DHT22;2695;49.444;11.054;2023-07-02T12:49:44;28.40;39.80
5346;DHT22;2695;49.444;11.054;2023-07-02T12:52:12;28.30;40.50
5346;DHT22;2695;49.444;11.054;2023-07-02T12:54:40;28.40;40.30
5346;DHT22;2695;49.444;11.054;2023-07-02T12:57:12;28.60;40.20
5346;DHT22;2695;49.444;11.054;2023-07-02T12:59:39;29.20;40.00
5346;DHT22;2695;49.444;11.054;2023-07-02T13:02:10;29.00;39.70
5346;DHT22;2695;49.444;11.054;2023-07-02T13:04:38;29.00;39.50
5346;DHT22;2695;49.444;11.054;2023-07-02T13:07:06;28.70;40.10
5346;DHT22;2695;49.444;11.054;2023-07-02T13:09:34;28.70;39.90
5346;DHT22;2695;49.444;11.054;2023-07-02T13:12:03;28.60;39.70
5346;DHT22;2695;49.444;11.054;2023-07-02T13:14:31;28.20;40.10
5346;DHT22;2695;49.444;11.054;2023-07-02T13:16:59;28.00;41.80
5346;DHT22;2695;49.444;11.054;2023-07-02T13:19:29;28.00;41.90
5346;DHT22;2695;49.444;11.054;2023-07-02T13:21:56;28.10;41.20
5346;DHT22;2695;49.444;11.054;2023-07-02T13:24:31;28.10;41.10
5346;DHT22;2695;49.444;11.054;2023-07-02T13:27:02;28.00;41.30
5346;DHT22;2695;49.444;11.054;2023-07-02T13:29:30;27.90;41.50
5346;DHT22;2695;49.444;11.054;2023-07-02T13:31:58;27.60;41.60
5346;DHT22;2695;49.444;11.054;2023-07-02T13:34:26;27.50;42.20
5346;DHT22;2695;49.444;11.054;2023-07-02T13:36:55;27.70;42.80
5346;DHT22;2695;49.444;11.054;2023-07-02T13:39:23;27.80;42.20
5346;DHT22;2695;49.444;11.054;2023-07-02T13:41:51;28.10;42.10
5346;DHT22;2695;49.444;11.054;2023-07-02T13:44:19;28.20;41.80
5346;DHT22;2695;49.444;11.054;2023-07-02T13:46:48;28.90;42.20
5346;DHT22;2695;49.444;11.054;2023-07-02T13:49:16;28.30;41.10
5346;DHT22;2695;49.444;11.054;2023-07-02T13:51:44;28.00;40.80
5346;DHT22;2695;49.444;11.054;2023-07-02T13:54:13;27.80;41.50
5346;DHT22;2695;49.444;11.054;2023-07-02T13:56:42;27.70;42.20
5346;DHT22;2695;49.444;11.054;2023-07-02T13:59:11;27.50;42.60
5346;DHT22;2695;49.444;11.054;2023-07-02T14:01:39;27.60;43.10
5346;DHT22;2695;49.444;11.054;2023-07-02T14:04:07;27.70;42.70
5346;DHT22;2695;49.444;11.054;2023-07-02T14:06:35;27.70;42.50
5346;DHT22;2695;49.444;11.054;2023-07-02T14:09:04;27.60;42.70
5346;DHT22;2695;49.444;11.054;2023-07-02T14:11:34;27.60;42.50
5346;DHT22;2695;49.444;11.054;2023-07-02T14:14:02;27.60;42.40
5346;DHT22;2695;49.444;11.054;2023-07-02T14:16:33;27.70;42.40
5346;DHT22;2695;49.444;11.054;2023-07-02T14:19:01;27.80;42.30
5346;DHT22;2695;49.444;11.054;2023-07-02T14:21:29;27.90;42.70
5346;DHT22;2695;49.444;11.054;2023-07-02T14:23:57;27.90;42.60
5346;DHT22;2695;49.444;11.054;2023-07-02T14:26:26;27.90;42.70
5346;DHT22;2695;49.444;11.054;2023-07-02T14:28:57;27.80;42.60
5346;DHT22;2695;49.444;11.054;2023-07-02T14:31:26;28.00;42.40
5346;DHT22;2695;49.444;11.054;2023-07-02T14:33:55;28.10;42.10
5346;DHT22;2695;49.444;11.054;2023-07-02T14:36:23;28.00;42.50
5346;DHT22;2695;49.444;11.054;2023-07-02T14:38:51;28.00;42.50
5346;DHT22;2695;49.444;11.054;2023-07-02T14:41:19;27.80;42.10
5346;DHT22;2695;49.444;11.054;2023-07-02T14:43:47;27.60;42.00
5346;DHT22;2695;49.444;11.054;2023-07-02T14:46:16;27.70;42.60
5346;DHT22;2695;49.444;11.054;2023-07-02T14:48:44;27.70;42.00
5346;DHT22;2695;49.444;11.054;2023-07-02T14:51:13;27.70;42.40
5346;DHT22;2695;49.444;11.054;2023-07-02T14:53:42;27.70;42.20
5346;DHT22;2695;49.444;11.054;2023-07-02T14:56:10;27.40;42.40
5346;DHT22;2695;49.444;11.054;2023-07-02T14:58:38;27.50;43.10
5346;DHT22;2695;49.444;11.054;2023-07-02T15:01:09;27.50;43.00
5346;DHT22;2695;49.444;11.054;2023-07-02T15:03:37;27.40;42.90
5346;DHT22;2695;49.444;11.054;2023-07-02T15:06:07;27.40;43.00
5346;DHT22;2695;49.444;11.054;2023-07-02T15:08:37;27.40;42.50
5346;DHT22;2695;49.444;11.054;2023-07-02T15:11:05;27.30;42.30
5346;DHT22;2695;49.444;11.054;2023-07-02T15:13:34;27.10;43.30
5346;DHT22;2695;49.444;11.054;2023-07-02T15:16:02;27.10;43.40
5346;DHT22;2695;49.444;11.054;2023-07-02T15:18:31;27.00;43.10
5346;DHT22;2695;49.444;11.054;2023-07-02T15:20:59;27.00;43.60
5346;DHT22;2695;49.444;11.054;2023-07-02T15:23:28;27.10;43.00
5346;DHT22;2695;49.444;11.054;2023-07-02T15:25:59;27.00;43.40
5346;DHT22;2695;49.444;11.054;2023-07-02T15:28:28;27.00;43.20
5346;DHT22;2695;49.444;11.054;2023-07-02T15:30:58;27.00;43.10
5346;DHT22;2695;49.444;11.054;2023-07-02T15:33:27;27.00;43.20
5346;DHT22;2695;49.444;11.054;2023-07-02T15:35:55;26.90;43.60
5346;DHT22;2695;49.444;11.054;2023-07-02T15:38:23;26.90;43.70
5346;DHT22;2695;49.444;11.054;2023-07-02T15:41:10;26.90;43.30
5346;DHT22;2695;49.444;11.054;2023-07-02T15:43:41;26.90;44.20
5346;DHT22;2695;49.444;11.054;2023-07-02T15:46:12;26.40;42.80
5346;DHT22;2695;49.444;11.054;2023-07-02T15:48:40;27.30;43.60
5346;DHT22;2695;49.444;11.054;2023-07-02T15:51:09;27.30;43.80
5346;DHT22;2695;49.444;11.054;2023-07-02T15:53:42;26.70;43.20
5346;DHT22;2695;49.444;11.054;2023-07-02T15:56:12;25.70;43.30